createdAt,value
2023-10-13T00:02:24.154Z,13.36
2023-10-13T00:04:55.535Z,13.37
2023-10-13T00:07:25.843Z,13.39
2023-10-13T00:10:00.832Z,13.37
2023-10-13T00:12:33.058Z,13.40
2023-10-13T00:15:05.943Z,13.42
2023-10-13T00:17:37.864Z,13.43
2023-10-13T00:20:14.031Z,13.44
2023-10-13T00:22:45.920Z,13.45
2023-10-13T00:25:27.766Z,13.46
2023-10-13T00:27:59.170Z,13.47
2023-10-13T00:30:34.550Z,13.48
2023-10-13T00:33:05.960Z,13.49
2023-10-13T00:35:43.637Z,13.50
2023-10-13T00:38:18.342Z,13.49
2023-10-13T00:40:55.938Z,13.49
2023-10-13T00:43:33.357Z,13.51
2023-10-13T00:46:14.570Z,13.51
2023-10-13T00:48:47.015Z,13.51
2023-10-13T00:51:33.538Z,13.51
2023-10-13T00:54:12.611Z,13.52
2023-10-13T00:56:49.980Z,13.49
2023-10-13T00:59:19.107Z,13.53
2023-10-13T01:01:55.551Z,13.56
2023-10-13T01:04:26.429Z,13.58
2023-10-13T01:06:56.828Z,13.58
2023-10-13T01:09:26.431Z,13.62
2023-10-13T01:12:02.254Z,13.60
2023-10-13T01:14:30.464Z,13.67
2023-10-13T01:17:02.949Z,13.70
2023-10-13T01:19:30.819Z,13.71
2023-10-13T01:22:04.122Z,13.72
2023-10-13T01:24:36.462Z,13.76
2023-10-13T01:27:18.997Z,13.77
2023-10-13T01:29:50.414Z,13.81
2023-10-13T01:32:22.508Z,13.81
2023-10-13T01:34:51.275Z,13.82
2023-10-13T01:37:21.614Z,13.83
2023-10-13T01:39:52.342Z,13.83
2023-10-13T01:42:25.668Z,13.87
2023-10-13T01:44:54.432Z,13.88
2023-10-13T01:47:25.193Z,13.89
2023-10-13T01:49:53.044Z,13.88
2023-10-13T01:52:26.386Z,13.89
2023-10-13T01:54:59.160Z,13.89
2023-10-13T01:57:29.611Z,13.90
2023-10-13T01:59:57.344Z,13.91
2023-10-13T02:02:32.985Z,13.91
2023-10-13T02:05:02.475Z,13.92
2023-10-13T02:07:36.409Z,13.94
2023-10-13T02:10:07.932Z,13.95
2023-10-13T02:12:44.183Z,13.94
2023-10-13T02:15:22.577Z,13.93
2023-10-13T02:17:56.557Z,13.92
2023-10-13T02:20:26.927Z,13.94
2023-10-13T02:22:57.249Z,13.96
2023-10-13T02:25:37.242Z,13.94
2023-10-13T02:28:10.281Z,13.95
2023-10-13T02:30:40.032Z,13.96
2023-10-13T02:33:13.210Z,13.97
2023-10-13T02:35:45.019Z,13.97
2023-10-13T02:38:16.853Z,13.98
2023-10-13T02:40:47.197Z,13.98
2023-10-13T02:43:17.729Z,13.99
2023-10-13T02:45:59.207Z,13.98
2023-10-13T02:48:32.085Z,14.02
2023-10-13T02:51:03.324Z,14.03
2023-10-13T02:53:33.769Z,14.03
2023-10-13T02:56:07.389Z,14.06
2023-10-13T02:58:45.456Z,14.07
2023-10-13T03:01:19.054Z,14.09
2023-10-13T03:03:55.817Z,14.08
2023-10-13T03:06:25.502Z,14.11
2023-10-13T03:08:58.176Z,14.11
2023-10-13T03:11:33.744Z,14.15
2023-10-13T03:14:08.088Z,14.14
2023-10-13T03:16:36.308Z,14.11
2023-10-13T03:19:09.357Z,14.15
2023-10-13T03:21:38.249Z,14.17
2023-10-13T03:24:14.979Z,14.16
2023-10-13T03:26:53.691Z,14.15
2023-10-13T03:29:25.546Z,14.16
2023-10-13T03:32:08.265Z,14.16
2023-10-13T03:34:42.486Z,14.17
2023-10-13T03:37:20.303Z,14.16
2023-10-13T03:39:52.722Z,14.18
2023-10-13T03:42:25.927Z,14.15
2023-10-13T03:44:56.892Z,14.16
2023-10-13T03:47:33.759Z,14.18
2023-10-13T03:50:18.725Z,14.17
2023-10-13T03:52:50.059Z,14.15
2023-10-13T03:55:21.382Z,14.16
2023-10-13T03:57:54.235Z,14.15
2023-10-13T04:00:26.600Z,14.18
2023-10-13T04:03:09.399Z,14.19
2023-10-13T04:05:47.010Z,14.18
2023-10-13T04:08:29.885Z,14.19
2023-10-13T04:11:14.320Z,14.19
2023-10-13T04:13:59.550Z,14.18
2023-10-13T04:16:39.590Z,14.18
2023-10-13T04:19:22.196Z,14.19
2023-10-13T04:22:15.633Z,14.19
2023-10-13T04:25:06.929Z,14.24
2023-10-13T04:27:54.937Z,14.29
2023-10-13T04:30:40.054Z,14.29
2023-10-13T04:33:18.823Z,14.31
2023-10-13T04:35:59.374Z,14.30
2023-10-13T04:38:35.377Z,14.31
2023-10-13T04:41:11.399Z,14.32
2023-10-13T04:43:53.828Z,14.32
2023-10-13T04:46:55.685Z,14.32
2023-10-13T04:49:37.139Z,14.30
2023-10-13T04:52:14.401Z,14.33
2023-10-13T04:54:51.268Z,14.32
2023-10-13T04:57:26.720Z,14.35
2023-10-13T05:00:19.248Z,14.33
2023-10-13T05:03:13.630Z,14.35
2023-10-13T05:06:09.443Z,14.32
2023-10-13T05:08:52.127Z,14.34
2023-10-13T05:11:34.802Z,14.32
2023-10-13T05:14:17.512Z,14.35
2023-10-13T05:17:00.261Z,14.37
2023-10-13T05:19:45.606Z,14.36
2023-10-13T05:22:28.335Z,14.38
2023-10-13T05:25:11.037Z,14.39
2023-10-13T05:27:53.565Z,14.41
2023-10-13T05:30:36.434Z,14.41
2023-10-13T05:33:34.638Z,14.44
2023-10-13T05:36:26.829Z,14.43
2023-10-13T05:39:09.494Z,14.46
2023-10-13T05:41:52.192Z,14.47
2023-10-13T05:44:39.043Z,14.46
2023-10-13T05:47:22.138Z,14.48
2023-10-13T05:50:06.802Z,14.46
2023-10-13T05:52:52.116Z,14.45
2023-10-13T05:55:34.934Z,14.48
2023-10-13T05:58:17.608Z,14.50
2023-10-13T06:01:00.412Z,14.50
2023-10-13T06:03:43.233Z,14.49
2023-10-13T06:06:25.983Z,14.52
2023-10-13T06:09:11.312Z,14.50
2023-10-13T06:11:53.991Z,14.50
2023-10-13T06:14:36.735Z,14.51
2023-10-13T06:17:19.502Z,14.54
2023-10-13T06:20:02.256Z,14.53
2023-10-13T06:22:44.973Z,14.54
2023-10-13T06:25:30.455Z,14.56
2023-10-13T06:28:13.185Z,14.56
2023-10-13T06:30:47.338Z,14.57
2023-10-13T06:33:18.313Z,14.58
2023-10-13T06:35:57.668Z,14.56
2023-10-13T06:38:32.285Z,14.58
2023-10-13T06:41:06.739Z,14.55
2023-10-13T06:43:41.196Z,14.58
2023-10-13T06:46:16.322Z,14.57
2023-10-13T06:48:46.355Z,14.57
2023-10-13T06:51:23.557Z,14.60
2023-10-13T06:53:58.147Z,14.62
2023-10-13T06:56:31.954Z,14.64
2023-10-13T06:59:06.163Z,14.65
2023-10-13T07:01:40.398Z,14.64
2023-10-13T07:04:15.060Z,14.65
2023-10-13T07:06:49.207Z,14.66
2023-10-13T07:09:40.811Z,14.66
2023-10-13T07:12:17.978Z,14.64
2023-10-13T07:14:54.808Z,14.66
2023-10-13T07:17:27.788Z,14.67
2023-10-13T07:20:07.887Z,14.67
2023-10-13T07:22:41.667Z,14.68
2023-10-13T07:25:25.202Z,14.69
2023-10-13T07:27:58.538Z,14.65
2023-10-13T07:30:32.372Z,14.71
2023-10-13T07:33:02.708Z,14.74
2023-10-13T07:35:37.258Z,14.72
2023-10-13T07:38:09.716Z,14.79
2023-10-13T07:40:51.499Z,14.79
2023-10-13T07:43:25.221Z,14.84
2023-10-13T07:46:00.055Z,14.82
2023-10-13T07:48:30.445Z,14.81
2023-10-13T07:51:05.503Z,14.83
2023-10-13T07:53:40.635Z,14.76
2023-10-13T07:56:13.299Z,14.79
2023-10-13T07:58:54.228Z,14.83
2023-10-13T08:01:26.411Z,14.83
2023-10-13T08:04:06.262Z,14.89
2023-10-13T08:06:38.176Z,14.91
2023-10-13T08:09:30.191Z,14.94
2023-10-13T08:12:01.447Z,14.92
2023-10-13T08:14:38.780Z,14.93
2023-10-13T08:17:12.347Z,14.97
2023-10-13T08:19:47.388Z,15.00
2023-10-13T08:22:37.601Z,14.99
2023-10-13T08:25:45.415Z,15.07
2023-10-13T08:28:28.162Z,15.13
2023-10-13T08:31:08.310Z,15.11
2023-10-13T08:33:39.820Z,15.17
2023-10-13T08:36:32.342Z,15.18
2023-10-13T08:39:22.688Z,15.20
2023-10-13T08:42:13.816Z,15.27
2023-10-13T08:44:53.612Z,15.32
2023-10-13T08:47:37.239Z,15.37
2023-10-13T08:50:30.729Z,15.38
2023-10-13T08:53:10.965Z,15.49
2023-10-13T08:56:02.418Z,15.44
2023-10-13T08:58:53.041Z,15.50
2023-10-13T09:01:38.889Z,15.49
2023-10-13T09:04:29.192Z,15.41
2023-10-13T09:07:10.286Z,15.50
2023-10-13T09:10:12.942Z,15.50
2023-10-13T09:12:54.439Z,15.56
2023-10-13T09:15:47.253Z,15.62
2023-10-13T09:18:44.285Z,15.61
2023-10-13T09:21:47.535Z,15.70
2023-10-13T09:24:24.162Z,15.77
2023-10-13T09:26:57.603Z,15.78
2023-10-13T09:29:30.645Z,15.84
2023-10-13T09:32:05.366Z,15.90
2023-10-13T09:34:42.190Z,15.93
2023-10-13T09:37:16.459Z,16.00
2023-10-13T09:39:56.129Z,16.02
2023-10-13T09:42:25.245Z,16.00
2023-10-13T09:44:57.196Z,16.01
2023-10-13T09:47:32.592Z,16.06
2023-10-13T09:50:15.560Z,16.02
2023-10-13T09:52:48.168Z,16.08
2023-10-13T09:55:31.132Z,16.07
2023-10-13T09:58:12.101Z,16.09
2023-10-13T10:00:51.011Z,16.02
2023-10-13T10:03:33.834Z,16.06
2023-10-13T10:06:17.455Z,16.10
2023-10-13T10:08:52.050Z,16.11
2023-10-13T10:12:19.852Z,16.09
2023-10-13T10:15:11.964Z,16.11
2023-10-13T10:17:47.127Z,16.17
2023-10-13T10:20:34.085Z,16.16
2023-10-13T10:23:06.185Z,16.15
2023-10-13T10:25:45.903Z,16.13
2023-10-13T10:28:17.365Z,16.12
2023-10-13T10:30:47.988Z,16.14
2023-10-13T10:33:20.040Z,16.19
2023-10-13T10:35:52.394Z,16.21
2023-10-13T10:38:34.352Z,16.17
2023-10-13T10:41:13.992Z,16.20
2023-10-13T10:43:48.033Z,16.21
2023-10-13T10:46:20.330Z,16.20
2023-10-13T10:48:57.899Z,16.22
2023-10-13T10:51:32.526Z,16.22
2023-10-13T10:54:12.899Z,16.26
2023-10-13T10:56:45.797Z,16.33
2023-10-13T10:59:19.981Z,16.34
2023-10-13T11:01:52.683Z,16.46
2023-10-13T11:04:35.336Z,16.46
2023-10-13T11:07:07.935Z,16.44
2023-10-13T11:09:47.359Z,16.47
2023-10-13T11:12:25.622Z,16.51
2023-10-13T11:15:07.969Z,16.49
2023-10-13T11:17:44.551Z,16.47
2023-10-13T11:20:27.208Z,16.46
2023-10-13T11:22:55.375Z,16.28
2023-10-13T11:25:31.640Z,16.28
2023-10-13T11:28:19.155Z,16.20
2023-10-13T11:30:51.741Z,16.04
2023-10-13T11:33:25.338Z,15.90
2023-10-13T11:36:05.031Z,15.84
2023-10-13T11:38:50.920Z,15.78
2023-10-13T11:41:23.896Z,15.70
2023-10-13T11:44:08.615Z,15.66
2023-10-13T11:46:51.507Z,15.48
2023-10-13T11:49:33.083Z,15.37
2023-10-13T11:52:17.737Z,15.24
2023-10-13T11:54:48.882Z,15.18
2023-10-13T11:57:22.820Z,15.11
2023-10-13T12:00:17.861Z,15.08
2023-10-13T12:03:00.766Z,15.01
2023-10-13T12:05:50.368Z,14.97
2023-10-13T12:08:24.612Z,15.01
2023-10-13T12:11:01.558Z,14.97
2023-10-13T12:13:32.002Z,14.96
2023-10-13T12:16:10.079Z,14.96
2023-10-13T12:18:40.462Z,14.97
2023-10-13T12:21:20.744Z,14.91
2023-10-13T12:23:52.371Z,15.00
2023-10-13T12:26:33.752Z,14.90
2023-10-13T12:29:20.273Z,14.79
2023-10-13T12:32:07.074Z,14.64
2023-10-13T12:34:59.014Z,14.44
2023-10-13T12:37:51.253Z,14.28
2023-10-13T12:40:35.418Z,14.18
2023-10-13T12:43:19.685Z,14.26
2023-10-13T12:46:04.060Z,14.18
2023-10-13T12:48:53.358Z,14.18
2023-10-13T12:51:41.829Z,14.12
2023-10-13T12:54:21.753Z,13.86
2023-10-13T12:56:58.355Z,13.55
2023-10-13T12:59:30.734Z,13.44
2023-10-13T13:02:01.398Z,13.32
2023-10-13T13:04:38.220Z,13.08
2023-10-13T13:07:06.076Z,13.00
2023-10-13T13:09:39.031Z,12.99
2023-10-13T13:12:10.527Z,12.87
2023-10-13T13:14:42.716Z,12.86
2023-10-13T13:17:13.315Z,12.88
2023-10-13T13:19:46.512Z,12.79
2023-10-13T13:22:19.052Z,12.72
2023-10-13T13:24:49.899Z,12.64
2023-10-13T13:27:23.804Z,12.65
2023-10-13T13:29:56.359Z,12.68
2023-10-13T13:32:30.222Z,12.66
2023-10-13T13:35:06.051Z,12.64
2023-10-13T13:37:38.889Z,12.59
2023-10-13T13:40:19.517Z,12.56
2023-10-13T13:42:50.376Z,12.52
2023-10-13T13:45:28.913Z,12.42
2023-10-13T13:47:59.489Z,12.17
2023-10-13T13:50:39.804Z,12.29
2023-10-13T13:53:11.238Z,12.24
2023-10-13T13:55:41.688Z,12.16
2023-10-13T13:58:14.345Z,12.10
2023-10-13T14:00:49.869Z,11.99
2023-10-13T14:03:32.878Z,11.92
2023-10-13T14:06:07.924Z,11.92
2023-10-13T14:08:38.249Z,11.91
2023-10-13T14:11:23.406Z,11.87
2023-10-13T14:13:51.500Z,11.88
2023-10-13T14:16:24.452Z,11.84
2023-10-13T14:18:55.788Z,11.76
2023-10-13T14:21:29.087Z,11.76
2023-10-13T14:24:02.099Z,11.67
2023-10-13T14:26:34.725Z,11.60
2023-10-13T14:29:09.422Z,11.62
2023-10-13T14:31:40.825Z,11.61
2023-10-13T14:34:12.417Z,11.51
2023-10-13T14:36:49.657Z,11.52
2023-10-13T14:39:22.379Z,11.46
2023-10-13T14:41:52.656Z,11.38
2023-10-13T14:44:28.172Z,11.38
2023-10-13T14:46:58.781Z,11.38
2023-10-13T14:49:29.225Z,11.32
2023-10-13T14:52:02.139Z,11.34
2023-10-13T14:54:38.956Z,11.32
2023-10-13T14:57:09.200Z,11.33
2023-10-13T14:59:40.194Z,11.35
2023-10-13T15:02:11.009Z,11.31
2023-10-13T15:04:41.505Z,11.31
2023-10-13T15:07:16.289Z,11.29
2023-10-13T15:09:46.860Z,11.32
2023-10-13T15:12:21.369Z,11.31
2023-10-13T15:14:55.044Z,11.31
2023-10-13T15:17:25.821Z,11.34
2023-10-13T15:19:56.599Z,11.40
2023-10-13T15:22:29.717Z,11.37
2023-10-13T15:25:11.006Z,11.40
2023-10-13T15:27:46.627Z,11.45
2023-10-13T15:30:25.294Z,11.46
2023-10-13T15:32:56.674Z,11.41
2023-10-13T15:35:29.907Z,11.43
2023-10-13T15:38:03.266Z,11.45
2023-10-13T15:40:33.878Z,11.56
2023-10-13T15:43:06.806Z,11.55
2023-10-13T15:45:40.879Z,11.52
2023-10-13T15:50:45.997Z,11.51
2023-10-13T15:53:18.972Z,11.48
2023-10-13T15:55:49.285Z,11.46
2023-10-13T15:58:19.638Z,11.52
2023-10-13T16:00:49.949Z,11.43
2023-10-13T16:03:20.387Z,11.43
2023-10-13T16:05:50.748Z,11.44
2023-10-13T16:08:23.621Z,11.45
2023-10-13T16:10:53.867Z,11.45
2023-10-13T16:13:24.211Z,11.44
2023-10-13T16:15:54.788Z,11.47
2023-10-13T16:18:25.217Z,11.42
2023-10-13T16:20:56.066Z,11.40
2023-10-13T16:23:29.359Z,11.35
2023-10-13T16:26:02.993Z,11.33
2023-10-13T16:28:35.921Z,11.31
2023-10-13T16:31:06.682Z,11.28
2023-10-13T16:33:37.208Z,11.23
2023-10-13T16:36:10.045Z,11.15
2023-10-13T16:38:46.876Z,11.15
2023-10-13T16:41:17.201Z,11.12
2023-10-13T16:43:48.978Z,11.09
2023-10-13T16:46:19.471Z,11.11
2023-10-13T16:48:49.930Z,11.10
2023-10-13T16:51:20.469Z,11.06
2023-10-13T16:53:53.379Z,11.05
2023-10-13T16:56:23.826Z,11.03
2023-10-13T16:58:55.829Z,11.00
2023-10-13T17:01:26.797Z,10.97
2023-10-13T17:03:57.253Z,10.91
2023-10-13T17:06:27.674Z,10.87
2023-10-13T17:09:00.551Z,10.80
2023-10-13T17:11:30.876Z,10.79
2023-10-13T17:14:01.167Z,10.68
2023-10-13T17:16:33.342Z,10.64
2023-10-13T17:19:03.616Z,10.65
2023-10-13T17:21:34.123Z,10.54
2023-10-13T17:24:07.862Z,10.47
2023-10-13T17:26:38.184Z,10.40
2023-10-13T17:29:11.171Z,10.33
2023-10-13T17:31:41.523Z,10.25
2023-10-13T17:34:11.868Z,10.27
2023-10-13T17:36:42.162Z,10.21
2023-10-13T17:39:15.871Z,10.15
2023-10-13T17:41:46.314Z,10.10
2023-10-13T17:44:16.583Z,10.06
2023-10-13T17:46:46.980Z,9.98
2023-10-13T17:49:20.077Z,9.93
2023-10-13T17:51:50.422Z,9.91
2023-10-13T17:54:24.306Z,9.85
2023-10-13T17:56:54.817Z,9.80
2023-10-13T17:59:25.102Z,9.74
2023-10-13T18:01:55.601Z,9.69
2023-10-13T18:04:26.106Z,9.63
2023-10-13T18:06:57.695Z,9.54
2023-10-13T18:09:31.009Z,9.51
2023-10-13T18:12:01.504Z,9.49
2023-10-13T18:14:31.867Z,9.44
2023-10-13T18:17:06.363Z,9.44
2023-10-13T18:19:37.143Z,9.45
2023-10-13T18:22:07.774Z,9.45
2023-10-13T18:24:41.491Z,9.47
2023-10-13T18:27:11.823Z,9.53
2023-10-13T18:29:42.231Z,9.55
2023-10-13T18:32:12.529Z,9.60
2023-10-13T18:34:48.851Z,9.61
2023-10-13T18:37:20.340Z,9.57
2023-10-13T18:39:53.249Z,9.57
2023-10-13T18:42:24.641Z,9.51
2023-10-13T18:44:58.021Z,9.47
2023-10-13T18:47:28.424Z,9.46
2023-10-13T18:49:58.746Z,9.43
2023-10-13T18:52:29.075Z,9.35
2023-10-13T18:55:02.279Z,9.30
2023-10-13T18:57:32.836Z,9.27
2023-10-13T19:00:05.228Z,9.22
2023-10-13T19:02:35.564Z,9.19
2023-10-13T19:05:05.872Z,9.16
2023-10-13T19:07:36.173Z,9.10
2023-10-13T19:10:16.025Z,9.09
2023-10-13T19:12:50.982Z,9.04
2023-10-13T19:15:26.553Z,9.03
2023-10-13T19:17:57.198Z,9.01
2023-10-13T19:20:28.769Z,8.94
2023-10-13T19:22:59.078Z,8.91
2023-10-13T19:25:31.986Z,8.88
2023-10-13T19:28:02.260Z,8.87
2023-10-13T19:30:34.215Z,8.85
2023-10-13T19:33:05.487Z,8.84
2023-10-13T19:35:35.784Z,8.78
2023-10-13T19:38:06.302Z,8.76
2023-10-13T19:40:42.878Z,8.74
2023-10-13T19:43:16.435Z,8.73
2023-10-13T19:45:46.994Z,8.69
2023-10-13T19:48:17.335Z,8.69
2023-10-13T19:50:47.751Z,8.64
2023-10-13T19:53:18.172Z,8.62
2023-10-13T19:55:55.535Z,8.64
2023-10-13T19:58:28.118Z,8.63
2023-10-13T20:01:00.617Z,8.66
2023-10-13T20:03:31.036Z,8.63
2023-10-13T20:06:01.303Z,8.70
2023-10-13T20:08:31.596Z,8.76
2023-10-13T20:11:04.454Z,8.92
2023-10-13T20:13:36.974Z,8.94
2023-10-13T20:16:08.533Z,8.95
2023-10-13T20:18:39.020Z,8.96
2023-10-13T20:21:09.426Z,8.97
2023-10-13T20:23:40.561Z,8.94
2023-10-13T20:26:16.638Z,8.90
2023-10-13T20:28:46.894Z,8.89
2023-10-13T20:31:21.459Z,8.80
2023-10-13T20:33:56.673Z,8.75
2023-10-13T20:36:28.159Z,8.71
2023-10-13T20:38:58.586Z,8.72
2023-10-13T20:41:31.466Z,8.68
2023-10-13T20:44:02.046Z,8.66
2023-10-13T20:46:34.947Z,8.58
2023-10-13T20:49:06.186Z,8.57
2023-10-13T20:51:36.696Z,8.59
2023-10-13T20:54:11.958Z,8.59
2023-10-13T20:56:45.520Z,8.54
2023-10-13T20:59:16.547Z,8.62
2023-10-13T21:01:47.184Z,8.64
2023-10-13T21:04:17.621Z,8.68
2023-10-13T21:06:51.144Z,8.65
2023-10-13T21:09:23.933Z,8.66
2023-10-13T21:11:57.424Z,8.62
2023-10-13T21:14:27.772Z,8.62
2023-10-13T21:17:01.521Z,8.55
2023-10-13T21:19:33.393Z,8.59
2023-10-13T21:22:09.614Z,8.59
2023-10-13T21:24:40.515Z,8.58
2023-10-13T21:27:13.432Z,8.56
2023-10-13T21:29:45.585Z,8.55
2023-10-13T21:32:16.384Z,8.53
2023-10-13T21:34:46.687Z,8.45
2023-10-13T21:37:16.956Z,8.46
2023-10-13T21:39:49.292Z,8.46
2023-10-13T21:42:22.540Z,8.40
2023-10-13T21:44:57.054Z,8.37
2023-10-13T21:47:27.787Z,8.34
2023-10-13T21:49:59.589Z,8.34
2023-10-13T21:52:29.943Z,8.33
2023-10-13T21:55:01.130Z,8.30
2023-10-13T21:57:34.032Z,8.30
2023-10-13T22:00:13.430Z,8.31
2023-10-13T22:02:44.737Z,8.28
2023-10-13T22:05:15.194Z,8.29
2023-10-13T22:07:48.351Z,8.28
2023-10-13T22:10:20.652Z,8.24
2023-10-13T22:12:56.187Z,8.20
2023-10-13T22:15:29.360Z,8.19
2023-10-13T22:17:59.727Z,8.19
2023-10-13T22:20:30.070Z,8.16
2023-10-13T22:23:01.005Z,8.15
2023-10-13T22:25:31.610Z,8.12
2023-10-13T22:28:05.279Z,8.09
2023-10-13T22:30:35.767Z,8.09
2023-10-13T22:33:06.254Z,8.08
2023-10-13T22:35:36.552Z,8.07
2023-10-13T22:38:08.373Z,8.07
2023-10-13T22:40:42.033Z,8.06
2023-10-13T22:43:15.058Z,8.10
2023-10-13T22:45:45.800Z,8.08
2023-10-13T22:48:16.260Z,8.07
2023-10-13T22:50:46.622Z,8.06
2023-10-13T22:53:16.876Z,8.04
2023-10-13T22:55:47.943Z,8.04
2023-10-13T22:58:20.858Z,8.01
2023-10-13T23:00:56.349Z,8.02
2023-10-13T23:03:36.197Z,7.97
2023-10-13T23:06:11.907Z,8.00
2023-10-13T23:08:43.016Z,8.02
2023-10-13T23:11:33.154Z,8.04
2023-10-13T23:14:06.032Z,8.05
2023-10-13T23:16:37.298Z,7.97
2023-10-13T23:19:08.138Z,7.98
2023-10-13T23:21:40.150Z,7.97
2023-10-13T23:24:13.100Z,7.99
2023-10-13T23:26:43.734Z,8.00
2023-10-13T23:29:17.656Z,7.98
2023-10-13T23:31:48.139Z,8.02
2023-10-13T23:34:18.423Z,7.97
2023-10-13T23:36:48.780Z,7.95
2023-10-13T23:39:34.388Z,7.96
2023-10-13T23:42:08.857Z,7.89
2023-10-13T23:44:48.138Z,7.89
2023-10-13T23:47:27.530Z,7.84
2023-10-13T23:49:59.735Z,7.86
2023-10-13T23:52:33.881Z,7.77
2023-10-13T23:55:08.822Z,7.80
2023-10-13T23:57:51.743Z,7.78
